Time;durP1;ratioP1;P1;durP2;ratioP2;P2;SDS_P1;SDS_P2;PMS_P1;PMS_P2;Temp;Humidity;BMP_temperature;BMP_pressure;BME280_temperature;BME280_humidity;BME280_pressure;Samples;Min_cycle;Max_cycle;Signal;HPM_P1;HPM_P2
2022/06/28 00:01:44;;;;;;;;;;;14.30;99.90;;;;;;4955945;29;19914;-78
2022/06/28 00:04:11;;;;;;;;;;;14.20;99.90;;;;;;4955930;29;19941;-79
2022/06/28 00:06:37;;;;;;;;;;;14.30;99.90;;;;;;4956018;29;19921;-79
2022/06/28 00:09:03;;;;;;;;;;;14.30;99.90;;;;;;4975506;28;19910;-78
2022/06/28 00:11:28;;;;;;;;;;;14.40;99.90;;;;;;4975176;28;19910;-78
2022/06/28 00:13:55;;;;;;;;;;;14.50;99.90;;;;;;4974986;28;19921;-78
2022/06/28 00:16:20;;;;;;;;;;;14.50;99.90;;;;;;4974963;28;19914;-79
2022/06/28 00:18:46;;;;;;;;;;;14.50;99.90;;;;;;4974533;28;20295;-78
2022/06/28 00:21:12;;;;;;;;;;;14.50;99.90;;;;;;4974956;28;19910;-79
2022/06/28 00:23:38;;;;;;;;;;;14.50;99.90;;;;;;4975015;28;20353;-79
2022/06/28 00:26:05;;;;;;;;;;;14.60;99.90;;;;;;4974676;28;20014;-78
2022/06/28 00:28:30;;;;;;;;;;;14.60;99.90;;;;;;4974360;28;19914;-78
2022/06/28 00:30:56;;;;;;;;;;;14.70;99.90;;;;;;4974874;28;19910;-78
2022/06/28 00:33:22;;;;;;;;;;;14.70;99.90;;;;;;4975373;28;19997;-78
2022/06/28 00:35:47;;;;;;;;;;;14.80;99.90;;;;;;4974805;28;19910;-79
2022/06/28 00:38:13;;;;;;;;;;;14.50;99.90;;;;;;4974293;28;20487;-79
2022/06/28 00:40:43;;;;;;;;;;;14.60;99.90;;;;;;4974306;28;19918;-79
2022/06/28 00:43:09;;;;;;;;;;;14.60;99.90;;;;;;4974688;28;19910;-78
2022/06/28 00:45:35;;;;;;;;;;;14.50;99.90;;;;;;4974623;28;19941;-78
2022/06/28 00:48:00;;;;;;;;;;;14.50;99.90;;;;;;4974235;28;19952;-79
2022/06/28 00:50:26;;;;;;;;;;;14.50;99.90;;;;;;4974346;28;19950;-79
2022/06/28 00:53:02;;;;;;;;;;;14.40;99.90;;;;;;4974680;28;19910;-79
2022/06/28 00:55:28;;;;;;;;;;;14.50;99.90;;;;;;4974631;28;19952;-79
2022/06/28 00:57:53;;;;;;;;;;;14.50;99.90;;;;;;4974173;28;19958;-79
2022/06/28 01:00:19;;;;;;;;;;;14.50;99.90;;;;;;4974709;28;20386;-79
2022/06/28 01:02:45;;;;;;;;;;;14.50;99.90;;;;;;4973811;28;19914;-78
2022/06/28 01:05:10;;;;;;;;;;;14.40;99.90;;;;;;4974467;28;19914;-79
2022/06/28 01:07:36;;;;;;;;;;;14.30;99.90;;;;;;4974124;28;19922;-79
2022/06/28 01:10:01;;;;;;;;;;;14.30;99.90;;;;;;4974430;28;20326;-78
2022/06/28 01:12:27;;;;;;;;;;;14.10;99.90;;;;;;4974333;28;19946;-77
2022/06/28 01:14:52;;;;;;;;;;;14.10;99.90;;;;;;4974227;28;19941;-78
2022/06/28 01:17:18;;;;;;;;;;;14.10;99.90;;;;;;4974082;28;20375;-78
2022/06/28 01:19:44;;;;;;;;;;;13.90;99.90;;;;;;4974286;28;19910;-79
2022/06/28 01:22:10;;;;;;;;;;;13.90;99.90;;;;;;4974354;28;19910;-79
2022/06/28 01:24:36;;;;;;;;;;;13.80;99.90;;;;;;4974274;28;19910;-78
2022/06/28 01:27:02;;;;;;;;;;;13.70;99.90;;;;;;4973639;28;19910;-78
2022/06/28 01:29:27;;;;;;;;;;;13.70;99.90;;;;;;4974261;28;19910;-77
2022/06/28 01:31:53;;;;;;;;;;;13.90;99.90;;;;;;4974362;28;19961;-78
2022/06/28 01:34:19;;;;;;;;;;;14.00;99.90;;;;;;4974103;28;19910;-79
2022/06/28 01:36:45;;;;;;;;;;;14.00;99.90;;;;;;4974212;28;20052;-79
2022/06/28 01:39:10;;;;;;;;;;;13.90;99.90;;;;;;4973698;28;19910;-77
2022/06/28 01:41:36;;;;;;;;;;;13.90;99.90;;;;;;4974129;28;19962;-79
2022/06/28 01:44:03;;;;;;;;;;;13.80;99.90;;;;;;4974133;28;19933;-78
2022/06/28 01:46:29;;;;;;;;;;;13.90;99.90;;;;;;4973910;28;19921;-79
2022/06/28 01:48:55;;;;;;;;;;;13.90;99.90;;;;;;4974091;28;19918;-78
2022/06/28 01:51:21;;;;;;;;;;;13.90;99.90;;;;;;4973732;28;19973;-79
2022/06/28 01:53:46;;;;;;;;;;;13.80;99.90;;;;;;4958934;28;19961;-79
2022/06/28 01:56:12;;;;;;;;;;;13.70;99.90;;;;;;4977484;28;19910;-77
2022/06/28 01:58:39;;;;;;;;;;;13.60;99.90;;;;;;4976972;28;19910;-79
2022/06/28 02:01:04;;;;;;;;;;;13.50;99.90;;;;;;4977311;28;20314;-79
2022/06/28 02:03:30;;;;;;;;;;;13.40;99.90;;;;;;4977468;28;19910;-79
2022/06/28 02:05:55;;;;;;;;;;;13.50;99.90;;;;;;4977217;28;19914;-78
2022/06/28 02:08:21;;;;;;;;;;;13.60;99.90;;;;;;4976856;28;20371;-78
2022/06/28 02:10:46;;;;;;;;;;;13.50;99.90;;;;;;4977230;28;19910;-79
2022/06/28 02:13:12;;;;;;;;;;;13.40;99.90;;;;;;4977187;28;19911;-78
2022/06/28 02:15:38;;;;;;;;;;;13.30;99.90;;;;;;4977127;28;20293;-79
2022/06/28 02:18:03;;;;;;;;;;;13.30;99.90;;;;;;4976839;28;19910;-79
2022/06/28 02:20:29;;;;;;;;;;;13.40;99.90;;;;;;4977023;28;19910;-78
2022/06/28 02:22:54;;;;;;;;;;;13.30;99.90;;;;;;4976954;28;19914;-78
2022/06/28 02:25:20;;;;;;;;;;;13.50;99.90;;;;;;4959432;28;20326;-78
2022/06/28 02:27:47;;;;;;;;;;;13.40;99.90;;;;;;4976559;28;19918;-78
2022/06/28 02:30:13;;;;;;;;;;;13.30;99.90;;;;;;4976985;28;19911;-79
2022/06/28 02:32:38;;;;;;;;;;;13.30;99.90;;;;;;4976786;28;20260;-79
2022/06/28 02:40:32;;;;;;;;;;;13.30;99.90;;;;;;4976449;28;20413;-79
2022/06/28 02:42:59;;;;;;;;;;;13.30;99.90;;;;;;4976692;28;19910;-79
2022/06/28 02:45:26;;;;;;;;;;;13.30;99.90;;;;;;4976554;28;19918;-78
2022/06/28 02:47:52;;;;;;;;;;;13.30;99.90;;;;;;4976189;28;19917;-79
2022/06/28 02:50:18;;;;;;;;;;;13.10;99.90;;;;;;4976367;28;20361;-79
2022/06/28 02:52:43;;;;;;;;;;;13.10;99.90;;;;;;4976394;28;20295;-78
2022/06/28 02:55:09;;;;;;;;;;;13.10;99.90;;;;;;4976590;28;19917;-79
2022/06/28 02:57:35;;;;;;;;;;;13.20;99.90;;;;;;4976148;28;20473;-78
2022/06/28 03:00:02;;;;;;;;;;;13.20;99.90;;;;;;4976379;28;20367;-79
2022/06/28 03:02:28;;;;;;;;;;;13.10;99.90;;;;;;4976110;28;19933;-78
2022/06/28 03:04:53;;;;;;;;;;;13.10;99.90;;;;;;4975722;28;20379;-78
2022/06/28 03:07:19;;;;;;;;;;;13.10;99.90;;;;;;4976077;28;20360;-78
2022/06/28 03:09:44;;;;;;;;;;;13.10;99.90;;;;;;4976116;28;19914;-79
2022/06/28 03:12:10;;;;;;;;;;;13.10;99.90;;;;;;4976178;28;20390;-79
2022/06/28 03:14:36;;;;;;;;;;;13.00;99.90;;;;;;4975935;28;19984;-79
2022/06/28 03:17:02;;;;;;;;;;;12.90;99.90;;;;;;4976012;28;19914;-78
2022/06/28 03:19:27;;;;;;;;;;;12.80;99.90;;;;;;4975648;28;19910;-78
2022/06/28 03:21:53;;;;;;;;;;;12.80;99.90;;;;;;4976242;28;19910;-79
2022/06/28 03:24:18;;;;;;;;;;;12.80;99.90;;;;;;4976018;28;19910;-78
2022/06/28 03:26:44;;;;;;;;;;;12.80;99.90;;;;;;4975597;28;20391;-78
2022/06/28 03:29:10;;;;;;;;;;;12.80;99.90;;;;;;4960879;28;19957;-77
2022/06/28 03:31:35;;;;;;;;;;;12.80;99.90;;;;;;4956518;28;19914;-78
2022/06/28 03:34:01;;;;;;;;;;;12.80;99.90;;;;;;4956379;28;19910;-79
2022/06/28 03:36:27;;;;;;;;;;;12.80;99.90;;;;;;4956349;28;19911;-78
2022/06/28 03:38:52;;;;;;;;;;;12.80;99.90;;;;;;4955788;28;20008;-79
2022/06/28 03:41:24;;;;;;;;;;;12.80;99.90;;;;;;4956493;28;19935;-78
2022/06/28 03:43:50;;;;;;;;;;;12.70;99.90;;;;;;4956138;29;19910;-78
2022/06/28 03:46:16;;;;;;;;;;;12.60;99.90;;;;;;4938958;29;19941;-78
2022/06/28 03:48:41;;;;;;;;;;;12.60;99.90;;;;;;4955726;28;20000;-78
2022/06/28 03:51:07;;;;;;;;;;;12.60;99.90;;;;;;4955654;29;19922;-80
2022/06/28 03:53:32;;;;;;;;;;;12.50;99.90;;;;;;4956235;28;19969;-78
2022/06/28 03:55:58;;;;;;;;;;;12.50;99.90;;;;;;4955972;28;19933;-77
2022/06/28 03:58:23;;;;;;;;;;;12.60;99.90;;;;;;4955794;28;19910;-78
2022/06/28 04:00:49;;;;;;;;;;;12.40;99.90;;;;;;4955936;28;19917;-78
2022/06/28 04:03:15;;;;;;;;;;;12.30;99.90;;;;;;4955602;28;20367;-79
2022/06/28 04:05:40;;;;;;;;;;;12.30;99.90;;;;;;4955792;28;19962;-78
2022/06/28 04:08:08;;;;;;;;;;;12.20;99.90;;;;;;4955521;28;19953;-79
2022/06/28 04:10:34;;;;;;;;;;;12.10;99.90;;;;;;4955836;29;19950;-77
2022/06/28 04:12:59;;;;;;;;;;;12.00;99.90;;;;;;4955663;29;20043;-78
2022/06/28 04:15:25;;;;;;;;;;;12.00;99.90;;;;;;4955031;28;19918;-78
2022/06/28 04:17:50;;;;;;;;;;;12.00;99.90;;;;;;4938248;28;19958;-79
2022/06/28 04:20:16;;;;;;;;;;;11.90;99.90;;;;;;4955594;29;19915;-79
2022/06/28 04:22:41;;;;;;;;;;;11.80;99.90;;;;;;4955648;29;19911;-79
2022/06/28 04:25:07;;;;;;;;;;;11.50;99.90;;;;;;4955436;29;19921;-79
2022/06/28 04:27:33;;;;;;;;;;;11.30;99.90;;;;;;4955564;29;19946;-78
2022/06/28 04:29:59;;;;;;;;;;;11.20;99.90;;;;;;4955233;28;19910;-78
2022/06/28 04:32:25;;;;;;;;;;;11.00;99.90;;;;;;4955471;29;19914;-79
2022/06/28 04:34:51;;;;;;;;;;;10.90;99.90;;;;;;4955466;28;19911;-78
2022/06/28 04:37:16;;;;;;;;;;;10.90;99.90;;;;;;4955303;29;19933;-78
2022/06/28 04:39:42;;;;;;;;;;;10.80;99.90;;;;;;4954936;28;19910;-80
2022/06/28 04:42:07;;;;;;;;;;;11.20;99.90;;;;;;4955293;29;19910;-79
2022/06/28 04:44:33;;;;;;;;;;;11.70;99.90;;;;;;4955379;29;20379;-77
2022/06/28 04:47:00;;;;;;;;;;;11.90;99.90;;;;;;4955267;29;19914;-78
2022/06/28 04:49:25;;;;;;;;;;;12.00;99.90;;;;;;4954862;28;19914;-78
2022/06/28 04:51:51;;;;;;;;;;;12.10;99.90;;;;;;4955466;29;19921;-79
2022/06/28 04:54:16;;;;;;;;;;;12.20;99.90;;;;;;4955193;29;20371;-79
2022/06/28 04:56:42;;;;;;;;;;;12.30;99.90;;;;;;4955379;28;19911;-78
2022/06/28 04:59:08;;;;;;;;;;;12.30;99.90;;;;;;4954670;28;20291;-79
2022/06/28 05:01:33;;;;;;;;;;;12.30;99.90;;;;;;4955013;29;19957;-79
2022/06/28 05:03:59;;;;;;;;;;;12.40;99.90;;;;;;4955157;28;19911;-79
2022/06/28 05:06:24;;;;;;;;;;;12.40;99.90;;;;;;4954991;28;20017;-78
2022/06/28 05:08:50;;;;;;;;;;;12.50;99.90;;;;;;4954744;28;19911;-79
2022/06/28 05:11:15;;;;;;;;;;;12.50;99.90;;;;;;4955213;29;19911;-80
2022/06/28 05:13:41;;;;;;;;;;;12.50;99.90;;;;;;4954931;29;19911;-79
2022/06/28 05:16:07;;;;;;;;;;;12.30;99.90;;;;;;4955020;28;19918;-80
2022/06/28 05:18:32;;;;;;;;;;;12.50;99.90;;;;;;4954612;28;19910;-80
2022/06/28 05:20:58;;;;;;;;;;;12.60;99.90;;;;;;4954974;29;19911;-79
2022/06/28 05:23:24;;;;;;;;;;;12.80;99.90;;;;;;4954919;29;19966;-78
2022/06/28 05:25:49;;;;;;;;;;;12.80;99.90;;;;;;4937538;29;19965;-79
2022/06/28 05:28:15;;;;;;;;;;;13.00;99.90;;;;;;4957781;28;19921;-79
2022/06/28 05:30:40;;;;;;;;;;;12.80;99.90;;;;;;4958712;28;19910;-78
2022/06/28 05:33:07;;;;;;;;;;;13.00;99.90;;;;;;4958629;28;20275;-79
2022/06/28 05:35:33;;;;;;;;;;;13.10;99.90;;;;;;4958624;28;19910;-79
2022/06/28 05:38:00;;;;;;;;;;;13.20;99.90;;;;;;4958222;28;19957;-79
2022/06/28 05:40:25;;;;;;;;;;;13.10;99.90;;;;;;4958462;29;19915;-79
2022/06/28 05:42:51;;;;;;;;;;;13.30;99.90;;;;;;4958663;29;19910;-80
2022/06/28 05:45:16;;;;;;;;;;;13.40;99.90;;;;;;4958294;29;19965;-78
2022/06/28 05:47:42;;;;;;;;;;;13.50;99.90;;;;;;4958381;29;20530;-79
2022/06/28 05:50:07;;;;;;;;;;;13.60;99.90;;;;;;4957624;28;19926;-78
2022/06/28 05:52:33;;;;;;;;;;;13.50;99.90;;;;;;4958442;29;19910;-79
2022/06/28 05:54:59;;;;;;;;;;;13.60;99.90;;;;;;4958165;29;19910;-79
2022/06/28 05:57:24;;;;;;;;;;;13.70;99.90;;;;;;4958159;29;20383;-79
2022/06/28 05:59:50;;;;;;;;;;;13.80;99.90;;;;;;4957644;28;19910;-78
2022/06/28 06:02:16;;;;;;;;;;;13.70;99.90;;;;;;4958094;29;19965;-79
2022/06/28 06:04:41;;;;;;;;;;;14.00;99.90;;;;;;4958029;29;19910;-80
2022/06/28 06:07:07;;;;;;;;;;;13.90;99.90;;;;;;4940874;29;20283;-78
2022/06/28 06:09:32;;;;;;;;;;;13.90;99.90;;;;;;4957722;28;19917;-79
2022/06/28 06:11:58;;;;;;;;;;;13.90;99.90;;;;;;4958007;29;19917;-79
2022/06/28 06:14:24;;;;;;;;;;;14.00;99.90;;;;;;4957737;29;20423;-79
2022/06/28 06:16:50;;;;;;;;;;;14.10;99.90;;;;;;4958184;29;19943;-79
2022/06/28 06:19:16;;;;;;;;;;;14.20;99.90;;;;;;4957550;28;19910;-79
2022/06/28 06:21:42;;;;;;;;;;;14.40;99.90;;;;;;4957593;28;19910;-79
2022/06/28 06:24:08;;;;;;;;;;;14.90;99.90;;;;;;4957867;29;19917;-79
2022/06/28 06:26:33;;;;;;;;;;;15.20;99.90;;;;;;4957475;28;19933;-79
2022/06/28 06:29:00;;;;;;;;;;;15.60;99.90;;;;;;4957470;28;20026;-78
2022/06/28 06:31:25;;;;;;;;;;;15.90;99.90;;;;;;4957525;28;20005;-79
2022/06/28 06:33:52;;;;;;;;;;;16.30;99.90;;;;;;4957827;29;19997;-79
2022/06/28 06:36:19;;;;;;;;;;;16.70;99.90;;;;;;4957779;29;19911;-79
2022/06/28 06:38:45;;;;;;;;;;;17.10;99.90;;;;;;4960492;28;19993;-79
2022/06/28 06:41:10;;;;;;;;;;;17.30;99.90;;;;;;4967436;28;20013;-79
2022/06/28 06:43:36;;;;;;;;;;;17.40;99.90;;;;;;4965569;28;20368;-78
2022/06/28 06:46:01;;;;;;;;;;;17.30;99.90;;;;;;4967065;28;19914;-79
2022/06/28 06:48:27;;;;;;;;;;;17.30;99.90;;;;;;4968316;28;19919;-80
2022/06/28 06:50:53;;;;;;;;;;;17.10;99.90;;;;;;4976996;28;19929;-80
2022/06/28 06:53:19;;;;;;;;;;;17.10;99.90;;;;;;4976959;28;19985;-79
2022/06/28 06:55:46;;;;;;;;;;;17.40;99.90;;;;;;4977096;28;20371;-79
2022/06/28 06:58:12;;;;;;;;;;;17.80;99.90;;;;;;4976955;28;20354;-79
2022/06/28 07:00:37;;;;;;;;;;;18.00;99.90;;;;;;4977230;28;19910;-79
2022/06/28 07:03:05;;;;;;;;;;;18.20;99.90;;;;;;4976146;28;20206;-82
2022/06/28 07:05:31;;;;;;;;;;;18.40;99.90;;;;;;4976683;28;19996;-79
2022/06/28 07:07:56;;;;;;;;;;;18.60;99.90;;;;;;4967025;28;19921;-80
2022/06/28 07:10:22;;;;;;;;;;;18.70;99.90;;;;;;4958638;28;19911;-79
2022/06/28 07:12:47;;;;;;;;;;;18.40;99.90;;;;;;4956283;28;20228;-79
2022/06/28 07:15:13;;;;;;;;;;;18.30;99.90;;;;;;4957121;29;19914;-79
2022/06/28 07:17:39;;;;;;;;;;;18.60;99.90;;;;;;4957286;29;19917;-79
2022/06/28 07:20:04;;;;;;;;;;;19.10;99.90;;;;;;4971720;28;19910;-79
2022/06/28 07:22:30;;;;;;;;;;;19.00;99.90;;;;;;4976516;28;19911;-79
2022/06/28 07:24:56;;;;;;;;;;;18.90;99.90;;;;;;4976419;28;20544;-78
2022/06/28 07:27:22;;;;;;;;;;;18.90;99.90;;;;;;4976286;28;19911;-80
2022/06/28 07:29:48;;;;;;;;;;;19.40;99.90;;;;;;4975669;28;19917;-79
2022/06/28 07:32:14;;;;;;;;;;;19.90;99.90;;;;;;4975157;28;20243;-80
2022/06/28 07:34:40;;;;;;;;;;;19.90;99.90;;;;;;4975080;28;19929;-80
2022/06/28 07:37:05;;;;;;;;;;;19.70;99.90;;;;;;4975014;28;20010;-79
2022/06/28 07:39:31;;;;;;;;;;;19.70;99.90;;;;;;4974628;28;19910;-80
2022/06/28 07:41:57;;;;;;;;;;;19.60;99.90;;;;;;4974911;28;19917;-79
2022/06/28 07:44:22;;;;;;;;;;;19.60;99.90;;;;;;4975556;28;19911;-78
2022/06/28 07:46:48;;;;;;;;;;;19.50;99.90;;;;;;4976038;28;19961;-79
2022/06/28 07:49:13;;;;;;;;;;;19.70;99.90;;;;;;4975644;28;19957;-79
2022/06/28 07:54:23;;;;;;;;;;;20.40;99.90;;;;;;4976310;28;20282;-80
2022/06/28 07:56:49;;;;;;;;;;;19.80;99.90;;;;;;4975628;28;19993;-79
2022/06/28 07:59:14;;;;;;;;;;;19.80;99.90;;;;;;4975650;28;19961;-80
2022/06/28 08:01:40;;;;;;;;;;;20.20;99.90;;;;;;4975711;28;19910;-79
2022/06/28 08:04:06;;;;;;;;;;;20.30;99.90;;;;;;4975943;28;20272;-79
2022/06/28 08:06:32;;;;;;;;;;;20.60;99.90;;;;;;4975486;28;19914;-78
2022/06/28 08:08:58;;;;;;;;;;;21.40;99.90;;;;;;4971113;28;19917;-80
2022/06/28 08:11:23;;;;;;;;;;;21.30;99.90;;;;;;4956376;29;19942;-79
2022/06/28 08:13:50;;;;;;;;;;;20.90;99.90;;;;;;4956183;29;20315;-79
2022/06/28 08:16:15;;;;;;;;;;;20.80;99.90;;;;;;4956416;29;19915;-80
2022/06/28 08:18:42;;;;;;;;;;;21.00;99.90;;;;;;4954781;28;20394;-80
2022/06/28 08:21:08;;;;;;;;;;;21.00;99.90;;;;;;4956163;28;20283;-79
2022/06/28 08:23:34;;;;;;;;;;;21.30;99.90;;;;;;4956149;29;20380;-79
2022/06/28 08:25:59;;;;;;;;;;;21.00;99.90;;;;;;4955964;29;19962;-79
2022/06/28 08:28:25;;;;;;;;;;;20.90;99.90;;;;;;4938811;29;19914;-79
2022/06/28 08:30:51;;;;;;;;;;;20.90;99.90;;;;;;4955669;28;20352;-80
2022/06/28 08:33:18;;;;;;;;;;;20.50;99.90;;;;;;4955875;29;19918;-80
2022/06/28 08:35:45;;;;;;;;;;;20.40;99.90;;;;;;4955765;28;19911;-78
2022/06/28 08:38:10;;;;;;;;;;;20.80;99.90;;;;;;4955660;29;19914;-79
2022/06/28 08:40:36;;;;;;;;;;;20.40;99.90;;;;;;4971871;28;19910;-79
2022/06/28 08:43:03;;;;;;;;;;;20.40;99.90;;;;;;4975075;28;19976;-80
2022/06/28 08:45:29;;;;;;;;;;;20.40;99.90;;;;;;4975054;28;19914;-79
2022/06/28 08:47:56;;;;;;;;;;;20.60;99.90;;;;;;4975102;28;19910;-78
2022/06/28 08:50:32;;;;;;;;;;;20.70;99.90;;;;;;4974531;28;19928;-79
2022/06/28 08:53:01;;;;;;;;;;;20.60;99.90;;;;;;4975281;28;19937;-79
2022/06/28 08:55:28;;;;;;;;;;;20.90;99.90;;;;;;4975070;28;19917;-80
2022/06/28 08:57:55;;;;;;;;;;;20.70;99.90;;;;;;4975154;28;19916;-79
2022/06/28 09:00:20;;;;;;;;;;;20.50;99.90;;;;;;4974610;28;19964;-79
2022/06/28 09:02:46;;;;;;;;;;;20.20;99.90;;;;;;4979890;28;19910;-80
2022/06/28 09:05:13;;;;;;;;;;;19.70;99.90;;;;;;4981242;28;19915;-79
2022/06/28 09:07:39;;;;;;;;;;;19.50;99.90;;;;;;4981494;28;19910;-79
2022/06/28 09:10:04;;;;;;;;;;;19.30;99.90;;;;;;4980851;28;19910;-79
2022/06/28 09:12:31;;;;;;;;;;;19.60;99.90;;;;;;4981098;28;19964;-79
2022/06/28 09:14:57;;;;;;;;;;;19.80;99.90;;;;;;4981142;28;20005;-79
2022/06/28 09:17:24;;;;;;;;;;;19.80;99.90;;;;;;4981501;28;20403;-79
2022/06/28 09:19:54;;;;;;;;;;;19.90;99.90;;;;;;4980960;28;19910;-79
2022/06/28 09:22:46;;;;;;;;;;;20.00;99.90;;;;;;4981205;28;19953;-79
2022/06/28 09:25:30;;;;;;;;;;;20.60;99.90;;;;;;4978478;28;19915;-80
2022/06/28 09:27:57;;;;;;;;;;;21.60;99.90;;;;;;4981245;28;19921;-79
2022/06/28 09:30:24;;;;;;;;;;;21.30;99.90;;;;;;4963621;28;19910;-79
2022/06/28 09:32:50;;;;;;;;;;;20.80;99.90;;;;;;4980929;28;19910;-79
2022/06/28 09:35:16;;;;;;;;;;;20.40;99.90;;;;;;4981115;28;20268;-79
2022/06/28 09:37:51;;;;;;;;;;;20.30;99.90;;;;;;4980964;28;20386;-79
2022/06/28 09:40:21;;;;;;;;;;;20.30;99.90;;;;;;4968824;28;20339;-79
2022/06/28 09:43:03;;;;;;;;;;;20.60;99.90;;;;;;4961919;28;19910;-80
2022/06/28 09:45:29;;;;;;;;;;;20.40;99.90;;;;;;4961550;28;19958;-79
2022/06/28 09:47:55;;;;;;;;;;;21.10;99.90;;;;;;4976062;28;19918;-80
2022/06/28 09:50:20;;;;;;;;;;;23.50;99.00;;;;;;4967839;28;19930;-80
2022/06/28 09:52:46;;;;;;;;;;;24.70;91.30;;;;;;4961868;28;19920;-80
2022/06/28 09:55:13;;;;;;;;;;;26.20;79.00;;;;;;4961470;29;20000;-79
2022/06/28 09:57:39;;;;;;;;;;;25.80;78.00;;;;;;4961659;28;19911;-80
2022/06/28 10:00:05;;;;;;;;;;;25.00;81.20;;;;;;4961341;28;19933;-79
2022/06/28 10:02:31;;;;;;;;;;;24.20;82.80;;;;;;4961470;29;19957;-80
2022/06/28 10:05:00;;;;;;;;;;;23.80;83.20;;;;;;4961439;28;20371;-80
2022/06/28 10:07:29;;;;;;;;;;;23.00;83.20;;;;;;4961355;29;19915;-80
2022/06/28 10:09:55;;;;;;;;;;;22.80;82.20;;;;;;4960847;28;20001;-79
2022/06/28 10:15:05;;;;;;;;;;;23.30;85.30;;;;;;4957579;29;19937;-79
2022/06/28 10:17:34;;;;;;;;;;;23.30;82.50;;;;;;4958403;28;20264;-79
2022/06/28 10:20:00;;;;;;;;;;;23.70;82.80;;;;;;4958109;28;19910;-80
2022/06/28 10:22:26;;;;;;;;;;;23.30;81.70;;;;;;4958425;28;19954;-79
2022/06/28 10:24:53;;;;;;;;;;;22.90;86.70;;;;;;4958245;28;19997;-79
2022/06/28 10:27:19;;;;;;;;;;;23.00;87.60;;;;;;4958382;29;19910;-80
2022/06/28 10:30:09;;;;;;;;;;;23.00;86.70;;;;;;4958115;28;19911;-80
2022/06/28 10:32:44;;;;;;;;;;;23.00;83.80;;;;;;4957978;28;20386;-79
2022/06/28 10:35:10;;;;;;;;;;;23.10;82.80;;;;;;4957980;28;20612;-80
2022/06/28 10:37:56;;;;;;;;;;;23.80;84.70;;;;;;4958324;28;20224;-80
2022/06/28 10:40:25;;;;;;;;;;;26.50;75.50;;;;;;4962482;28;20013;-79
2022/06/28 10:42:51;;;;;;;;;;;27.50;67.90;;;;;;4965706;28;20286;-79
2022/06/28 10:45:19;;;;;;;;;;;28.20;62.10;;;;;;4967209;28;19914;-80
2022/06/28 10:48:24;;;;;;;;;;;27.70;57.10;;;;;;4967559;28;19950;-79
2022/06/28 10:50:56;;;;;;;;;;;27.20;57.60;;;;;;4910288;29;19938;-79
2022/06/28 10:53:22;;;;;;;;;;;25.20;62.80;;;;;;4907276;29;19912;-80
2022/06/28 10:56:07;;;;;;;;;;;24.10;66.10;;;;;;4936575;28;19910;-79
2022/06/28 10:58:32;;;;;;;;;;;24.00;68.20;;;;;;4967301;28;19921;-80
2022/06/28 11:00:58;;;;;;;;;;;23.80;73.10;;;;;;4950690;28;19910;-80
2022/06/28 11:03:24;;;;;;;;;;;23.50;72.40;;;;;;4966571;28;20387;-80
2022/06/28 11:05:53;;;;;;;;;;;23.70;74.10;;;;;;4965256;28;19922;-80
2022/06/28 11:08:38;;;;;;;;;;;25.00;70.70;;;;;;4965323;28;19911;-79
2022/06/28 11:11:04;;;;;;;;;;;26.40;68.70;;;;;;4966073;28;20283;-80
2022/06/28 11:13:30;;;;;;;;;;;26.30;66.10;;;;;;4965006;28;19958;-79
2022/06/28 11:15:56;;;;;;;;;;;25.30;67.30;;;;;;4966943;28;19937;-80
2022/06/28 11:18:25;;;;;;;;;;;24.50;68.60;;;;;;4967145;28;19937;-81
2022/06/28 11:20:51;;;;;;;;;;;24.20;70.00;;;;;;4966923;28;19925;-79
2022/06/28 11:23:35;;;;;;;;;;;24.50;69.70;;;;;;4949293;28;19933;-79
2022/06/28 11:29:01;;;;;;;;;;;25.00;66.50;;;;;;4965227;28;20066;-80
2022/06/28 11:31:30;;;;;;;;;;;26.30;61.20;;;;;;4962694;28;20418;-80
2022/06/28 11:33:57;;;;;;;;;;;28.20;59.40;;;;;;4939694;29;20294;-80
2022/06/28 11:36:32;;;;;;;;;;;27.80;55.50;;;;;;4956848;29;19961;-79
2022/06/28 11:39:16;;;;;;;;;;;27.10;55.10;;;;;;4956632;29;19910;-79
2022/06/28 11:41:46;;;;;;;;;;;27.40;53.70;;;;;;4976263;28;19910;-79
2022/06/28 11:44:12;;;;;;;;;;;26.20;55.60;;;;;;4976229;28;19911;-79
2022/06/28 11:46:39;;;;;;;;;;;27.50;55.90;;;;;;4975976;28;20347;-80
2022/06/28 11:49:05;;;;;;;;;;;28.50;53.10;;;;;;4976079;28;20006;-78
2022/06/28 11:51:31;;;;;;;;;;;28.90;51.60;;;;;;4957656;28;20391;-80
2022/06/28 11:53:58;;;;;;;;;;;29.10;51.80;;;;;;4956741;29;19918;-80
2022/06/28 11:56:24;;;;;;;;;;;29.30;50.00;;;;;;4956623;29;19933;-79
2022/06/28 11:58:50;;;;;;;;;;;28.90;50.30;;;;;;4956790;29;20275;-79
2022/06/28 12:01:17;;;;;;;;;;;29.50;49.30;;;;;;4956128;28;19921;-79
2022/06/28 12:03:43;;;;;;;;;;;28.50;49.50;;;;;;4956455;29;19918;-81
2022/06/28 12:06:10;;;;;;;;;;;28.60;50.40;;;;;;4956644;29;20287;-81
2022/06/28 12:08:51;;;;;;;;;;;29.60;50.50;;;;;;4956509;29;19910;-80
2022/06/28 12:11:31;;;;;;;;;;;29.00;49.80;;;;;;4955890;28;19983;-80
2022/06/28 12:14:04;;;;;;;;;;;29.70;49.00;;;;;;4956361;28;19933;-80
2022/06/28 12:16:29;;;;;;;;;;;30.30;48.50;;;;;;4956103;29;19961;-79
2022/06/28 12:18:56;;;;;;;;;;;30.40;48.00;;;;;;4956174;28;19914;-79
2022/06/28 12:21:22;;;;;;;;;;;30.10;47.00;;;;;;4955715;28;19910;-81
2022/06/28 12:23:51;;;;;;;;;;;29.70;47.50;;;;;;4956101;29;19911;-81
2022/06/28 12:26:17;;;;;;;;;;;29.50;48.30;;;;;;4955956;29;19918;-80
2022/06/28 12:28:43;;;;;;;;;;;29.40;49.10;;;;;;4938980;29;19910;-80
2022/06/28 12:31:09;;;;;;;;;;;29.30;49.30;;;;;;4955583;28;20008;-80
2022/06/28 12:33:34;;;;;;;;;;;30.10;49.00;;;;;;4955571;29;20323;-80
2022/06/28 12:36:00;;;;;;;;;;;30.60;47.30;;;;;;4954989;29;19911;-79
2022/06/28 12:38:26;;;;;;;;;;;30.90;47.40;;;;;;4954889;29;19997;-81
2022/06/28 12:40:51;;;;;;;;;;;30.70;47.00;;;;;;4955311;28;19915;-79
2022/06/28 12:43:17;;;;;;;;;;;30.70;47.10;;;;;;4956075;29;20385;-79
2022/06/28 12:45:42;;;;;;;;;;;29.20;49.40;;;;;;4955921;29;19921;-80
2022/06/28 12:48:08;;;;;;;;;;;29.00;50.30;;;;;;4955308;29;19942;-79
2022/06/28 12:50:34;;;;;;;;;;;28.60;50.30;;;;;;4955041;28;19933;-80
2022/06/28 12:53:00;;;;;;;;;;;28.80;50.60;;;;;;4955464;29;19910;-79
2022/06/28 12:55:26;;;;;;;;;;;28.70;50.60;;;;;;4955744;29;19921;-79
2022/06/28 12:57:51;;;;;;;;;;;28.70;49.70;;;;;;4955645;29;19963;-80
2022/06/28 13:00:18;;;;;;;;;;;27.70;51.60;;;;;;4955552;28;19910;-80
2022/06/28 13:02:43;;;;;;;;;;;27.50;52.40;;;;;;4955340;29;19917;-81
2022/06/28 13:05:10;;;;;;;;;;;27.40;52.70;;;;;;4955652;28;19932;-80
2022/06/28 13:07:41;;;;;;;;;;;27.30;53.70;;;;;;4955625;29;19914;-80
2022/06/28 13:10:08;;;;;;;;;;;27.90;53.10;;;;;;4955344;28;19918;-80
2022/06/28 13:12:34;;;;;;;;;;;27.30;54.30;;;;;;4955267;29;19965;-80
2022/06/28 13:15:00;;;;;;;;;;;26.70;54.80;;;;;;4955344;29;19910;-79
2022/06/28 13:17:25;;;;;;;;;;;26.20;56.80;;;;;;4955443;29;20311;-80
2022/06/28 13:19:51;;;;;;;;;;;27.60;56.00;;;;;;4955135;28;19910;-81
2022/06/28 13:22:17;;;;;;;;;;;27.90;53.30;;;;;;4955547;28;19949;-79
2022/06/28 13:24:42;;;;;;;;;;;28.20;53.60;;;;;;4955299;29;20372;-79
2022/06/28 13:27:08;;;;;;;;;;;28.20;53.20;;;;;;4954998;29;19914;-80
2022/06/28 13:29:34;;;;;;;;;;;27.70;53.50;;;;;;4955309;29;19922;-79
2022/06/28 13:31:59;;;;;;;;;;;26.90;54.10;;;;;;4955139;28;19911;-80
2022/06/28 13:34:25;;;;;;;;;;;26.50;54.00;;;;;;4955427;29;19933;-80
2022/06/28 13:36:51;;;;;;;;;;;25.70;55.40;;;;;;4955180;29;20299;-80
2022/06/28 13:39:16;;;;;;;;;;;25.80;56.80;;;;;;4954954;29;19911;-78
2022/06/28 13:41:42;;;;;;;;;;;26.20;57.30;;;;;;4955017;28;19910;-80
2022/06/28 13:44:10;;;;;;;;;;;26.40;56.70;;;;;;4973712;28;19910;-81
2022/06/28 13:46:36;;;;;;;;;;;27.40;56.50;;;;;;4974510;28;19925;-81
2022/06/28 13:49:02;;;;;;;;;;;26.90;53.70;;;;;;4976026;28;19914;-79
2022/06/28 13:51:31;;;;;;;;;;;28.10;53.30;;;;;;4963546;28;19926;-80
2022/06/28 13:53:56;;;;;;;;;;;28.40;52.90;;;;;;4959000;29;19915;-79
2022/06/28 13:56:22;;;;;;;;;;;29.40;52.00;;;;;;4958862;29;19941;-80
2022/06/28 13:58:47;;;;;;;;;;;30.30;50.00;;;;;;4958179;29;20383;-80
2022/06/28 14:01:13;;;;;;;;;;;29.40;49.70;;;;;;4958081;28;19918;-80
2022/06/28 14:03:39;;;;;;;;;;;30.60;50.30;;;;;;4958687;29;19917;-80
2022/06/28 14:06:04;;;;;;;;;;;31.50;49.00;;;;;;4958845;29;20323;-79
2022/06/28 14:08:30;;;;;;;;;;;30.00;48.00;;;;;;4958680;29;19910;-80
2022/06/28 14:10:56;;;;;;;;;;;30.00;48.80;;;;;;4958226;28;19914;-81
2022/06/28 14:13:22;;;;;;;;;;;28.90;50.30;;;;;;4958488;29;19973;-79
2022/06/28 14:15:48;;;;;;;;;;;29.90;50.50;;;;;;4958540;29;19910;-80
2022/06/28 14:18:14;;;;;;;;;;;30.80;49.30;;;;;;4958363;29;20391;-80
2022/06/28 14:20:39;;;;;;;;;;;28.70;49.80;;;;;;4958149;29;20379;-80
2022/06/28 14:23:05;;;;;;;;;;;28.30;51.60;;;;;;4958423;29;20319;-81
2022/06/28 14:25:30;;;;;;;;;;;28.10;51.90;;;;;;4958080;29;19914;-79
2022/06/28 14:27:56;;;;;;;;;;;27.80;53.20;;;;;;4958105;29;19915;-81